sensor_id;sensor_type;location;lat;lon;timestamp;pressure;altitude;pressure_sealevel;temperature;humidity
55456;BME280;63021;52.836;6.376;2023-12-20T00:02:15;101446.00;;;5.78;84.90
55456;BME280;63021;52.836;6.376;2023-12-20T00:04:41;101429.59;;;5.72;85.00
55456;BME280;63021;52.836;6.376;2023-12-20T00:07:06;101421.25;;;5.79;84.72
55456;BME280;63021;52.836;6.376;2023-12-20T00:09:32;101413.53;;;5.76;84.91
55456;BME280;63021;52.836;6.376;2023-12-20T00:11:57;101410.69;;;5.79;84.83
55456;BME280;63021;52.836;6.376;2023-12-20T00:14:23;101419.97;;;5.71;84.58
55456;BME280;63021;52.836;6.376;2023-12-20T00:16:48;101426.75;;;5.76;84.73
55456;BME280;63021;52.836;6.376;2023-12-20T00:19:13;101413.00;;;5.70;85.23
55456;BME280;63021;52.836;6.376;2023-12-20T00:21:39;101411.09;;;5.72;84.83
55456;BME280;63021;52.836;6.376;2023-12-20T00:24:04;101414.88;;;5.68;84.52
55456;BME280;63021;52.836;6.376;2023-12-20T00:26:30;101407.47;;;5.61;84.48
55456;BME280;63021;52.836;6.376;2023-12-20T00:28:55;101397.84;;;5.60;84.79
55456;BME280;63021;52.836;6.376;2023-12-20T00:31:21;101403.44;;;5.55;84.54
55456;BME280;63021;52.836;6.376;2023-12-20T00:33:46;101407.03;;;5.54;84.60
55456;BME280;63021;52.836;6.376;2023-12-20T00:36:12;101410.41;;;5.56;84.66
55456;BME280;63021;52.836;6.376;2023-12-20T00:38:38;101396.44;;;5.54;84.54
55456;BME280;63021;52.836;6.376;2023-12-20T00:41:04;101404.03;;;5.46;84.73
55456;BME280;63021;52.836;6.376;2023-12-20T00:43:29;101395.94;;;5.49;84.76
55456;BME280;63021;52.836;6.376;2023-12-20T00:45:55;101396.00;;;5.47;84.65
55456;BME280;63021;52.836;6.376;2023-12-20T00:48:21;101413.00;;;5.43;84.51
55456;BME280;63021;52.836;6.376;2023-12-20T00:50:46;101392.72;;;5.44;84.50
55456;BME280;63021;52.836;6.376;2023-12-20T00:53:11;101396.09;;;5.46;84.93
55456;BME280;63021;52.836;6.376;2023-12-20T00:55:37;101373.88;;;5.35;84.62
55456;BME280;63021;52.836;6.376;2023-12-20T00:58:02;101392.41;;;5.48;84.71
55456;BME280;63021;52.836;6.376;2023-12-20T01:00:28;101380.16;;;5.47;84.95
55456;BME280;63021;52.836;6.376;2023-12-20T01:02:53;101394.03;;;5.51;85.03
55456;BME280;63021;52.836;6.376;2023-12-20T01:05:19;101391.38;;;5.51;85.18
55456;BME280;63021;52.836;6.376;2023-12-20T01:07:44;101388.75;;;5.51;85.02
55456;BME280;63021;52.836;6.376;2023-12-20T01:10:10;101401.94;;;5.51;85.16
55456;BME280;63021;52.836;6.376;2023-12-20T01:12:36;101381.75;;;5.50;85.29
55456;BME280;63021;52.836;6.376;2023-12-20T01:15:01;101380.81;;;5.51;84.78
55456;BME280;63021;52.836;6.376;2023-12-20T01:17:27;101367.16;;;5.44;85.16
55456;BME280;63021;52.836;6.376;2023-12-20T01:19:52;101381.75;;;5.50;84.91
55456;BME280;63021;52.836;6.376;2023-12-20T01:22:18;101383.47;;;5.51;84.87
55456;BME280;63021;52.836;6.376;2023-12-20T01:24:44;101379.13;;;5.50;84.53
55456;BME280;63021;52.836;6.376;2023-12-20T01:27:09;101388.19;;;5.46;84.98
55456;BME280;63021;52.836;6.376;2023-12-20T01:29:34;101391.59;;;5.48;85.11
55456;BME280;63021;52.836;6.376;2023-12-20T01:32:00;101369.69;;;5.46;84.69
55456;BME280;63021;52.836;6.376;2023-12-20T01:34:25;101371.28;;;5.48;84.91
55456;BME280;63021;52.836;6.376;2023-12-20T01:36:51;101345.94;;;5.46;85.00
55456;BME280;63021;52.836;6.376;2023-12-20T01:39:17;101348.47;;;5.47;85.14
55456;BME280;63021;52.836;6.376;2023-12-20T01:41:43;101340.13;;;5.41;85.01
55456;BME280;63021;52.836;6.376;2023-12-20T01:44:08;101353.75;;;5.47;85.39
55456;BME280;63021;52.836;6.376;2023-12-20T01:46:34;101366.00;;;5.48;84.84
55456;BME280;63021;52.836;6.376;2023-12-20T01:49:00;101361.59;;;5.49;85.02
55456;BME280;63021;52.836;6.376;2023-12-20T01:51:26;101351.72;;;5.38;85.02
55456;BME280;63021;52.836;6.376;2023-12-20T01:53:55;101367.63;;;5.51;84.92
55456;BME280;63021;52.836;6.376;2023-12-20T01:56:23;101365.69;;;5.53;85.29
55456;BME280;63021;52.836;6.376;2023-12-20T01:58:49;101377.13;;;5.53;85.39
55456;BME280;63021;52.836;6.376;2023-12-20T02:01:15;101364.56;;;5.57;84.96
55456;BME280;63021;52.836;6.376;2023-12-20T02:03:41;101354.75;;;5.59;85.12
55456;BME280;63021;52.836;6.376;2023-12-20T02:06:07;101364.34;;;5.60;85.20
55456;BME280;63021;52.836;6.376;2023-12-20T02:08:34;101343.16;;;5.62;85.10
55456;BME280;63021;52.836;6.376;2023-12-20T02:10:59;101347.56;;;5.61;85.01
55456;BME280;63021;52.836;6.376;2023-12-20T02:13:25;101347.44;;;5.63;84.99
55456;BME280;63021;52.836;6.376;2023-12-20T02:15:52;101349.88;;;5.66;85.03
55456;BME280;63021;52.836;6.376;2023-12-20T02:18:17;101356.03;;;5.66;84.66
55456;BME280;63021;52.836;6.376;2023-12-20T02:20:43;101342.81;;;5.66;85.06
55456;BME280;63021;52.836;6.376;2023-12-20T02:23:09;101331.50;;;5.64;84.99
55456;BME280;63021;52.836;6.376;2023-12-20T02:25:34;101334.03;;;5.66;85.25
55456;BME280;63021;52.836;6.376;2023-12-20T02:28:00;101321.03;;;5.63;84.90
55456;BME280;63021;52.836;6.376;2023-12-20T02:30:26;101329.63;;;5.66;84.97
55456;BME280;63021;52.836;6.376;2023-12-20T02:32:52;101308.38;;;5.55;84.96
55456;BME280;63021;52.836;6.376;2023-12-20T02:35:18;101332.25;;;5.66;85.04
55456;BME280;63021;52.836;6.376;2023-12-20T02:37:43;101323.28;;;5.69;84.82
55456;BME280;63021;52.836;6.376;2023-12-20T02:40:09;101332.78;;;5.71;84.88
55456;BME280;63021;52.836;6.376;2023-12-20T02:42:35;101302.44;;;5.64;85.09
55456;BME280;63021;52.836;6.376;2023-12-20T02:45:01;101304.16;;;5.65;85.36
55456;BME280;63021;52.836;6.376;2023-12-20T02:47:26;101313.25;;;5.74;85.17
55456;BME280;63021;52.836;6.376;2023-12-20T02:49:52;101304.78;;;5.82;85.38
55456;BME280;63021;52.836;6.376;2023-12-20T02:52:18;101319.81;;;5.81;85.36
55456;BME280;63021;52.836;6.376;2023-12-20T02:54:43;101296.34;;;5.77;85.46
55456;BME280;63021;52.836;6.376;2023-12-20T02:57:09;101299.41;;;5.83;85.37
55456;BME280;63021;52.836;6.376;2023-12-20T02:59:34;101315.91;;;5.87;84.81
55456;BME280;63021;52.836;6.376;2023-12-20T03:02:00;101293.28;;;5.83;85.20
55456;BME280;63021;52.836;6.376;2023-12-20T03:04:25;101290.97;;;5.91;85.10
55456;BME280;63021;52.836;6.376;2023-12-20T03:06:50;101297.19;;;5.90;84.92
55456;BME280;63021;52.836;6.376;2023-12-20T03:09:16;101285.56;;;5.93;85.27
55456;BME280;63021;52.836;6.376;2023-12-20T03:11:41;101282.19;;;5.90;84.95
55456;BME280;63021;52.836;6.376;2023-12-20T03:14:07;101290.22;;;5.89;85.24
55456;BME280;63021;52.836;6.376;2023-12-20T03:16:32;101284.09;;;5.88;85.20
55456;BME280;63021;52.836;6.376;2023-12-20T03:18:58;101290.63;;;5.96;85.32
55456;BME280;63021;52.836;6.376;2023-12-20T03:21:23;101279.84;;;5.86;85.25
55456;BME280;63021;52.836;6.376;2023-12-20T03:23:49;101292.97;;;6.00;85.06
55456;BME280;63021;52.836;6.376;2023-12-20T03:26:14;101290.56;;;5.97;85.07
55456;BME280;63021;52.836;6.376;2023-12-20T03:28:40;101271.63;;;5.90;84.97
55456;BME280;63021;52.836;6.376;2023-12-20T03:31:05;101286.66;;;6.03;85.51
55456;BME280;63021;52.836;6.376;2023-12-20T03:33:31;101287.69;;;6.00;85.58
55456;BME280;63021;52.836;6.376;2023-12-20T03:35:56;101287.50;;;6.03;85.42
55456;BME280;63021;52.836;6.376;2023-12-20T03:38:22;101292.59;;;6.06;85.05
55456;BME280;63021;52.836;6.376;2023-12-20T03:40:49;101291.94;;;6.03;85.55
55456;BME280;63021;52.836;6.376;2023-12-20T03:43:15;101272.28;;;6.07;85.02
55456;BME280;63021;52.836;6.376;2023-12-20T03:45:42;101273.97;;;6.08;84.85
55456;BME280;63021;52.836;6.376;2023-12-20T03:48:07;101275.03;;;6.05;84.86
55456;BME280;63021;52.836;6.376;2023-12-20T03:50:34;101273.31;;;6.04;84.75
55456;BME280;63021;52.836;6.376;2023-12-20T03:53:00;101262.97;;;6.01;85.16
55456;BME280;63021;52.836;6.376;2023-12-20T03:55:25;101270.78;;;6.03;84.99
55456;BME280;63021;52.836;6.376;2023-12-20T03:57:51;101281.38;;;6.03;84.69
55456;BME280;63021;52.836;6.376;2023-12-20T04:00:16;101273.44;;;6.03;84.43
55456;BME280;63021;52.836;6.376;2023-12-20T04:02:42;101271.84;;;6.00;84.93
55456;BME280;63021;52.836;6.376;2023-12-20T04:05:08;101268.03;;;6.04;85.01
55456;BME280;63021;52.836;6.376;2023-12-20T04:07:35;101271.22;;;6.10;84.93
55456;BME280;63021;52.836;6.376;2023-12-20T04:10:01;101266.66;;;6.12;85.05
55456;BME280;63021;52.836;6.376;2023-12-20T04:12:30;101271.84;;;6.13;84.59
55456;BME280;63021;52.836;6.376;2023-12-20T04:14:56;101277.88;;;6.15;84.98
55456;BME280;63021;52.836;6.376;2023-12-20T04:17:22;101275.00;;;6.18;85.24
55456;BME280;63021;52.836;6.376;2023-12-20T04:19:50;101251.09;;;6.20;84.99
55456;BME280;63021;52.836;6.376;2023-12-20T04:22:18;101241.25;;;6.22;84.86
55456;BME280;63021;52.836;6.376;2023-12-20T04:24:44;101228.81;;;6.11;85.00
55456;BME280;63021;52.836;6.376;2023-12-20T04:27:10;101237.16;;;6.18;84.63
55456;BME280;63021;52.836;6.376;2023-12-20T04:29:36;101230.50;;;6.25;84.58
55456;BME280;63021;52.836;6.376;2023-12-20T04:32:01;101230.38;;;6.27;84.23
55456;BME280;63021;52.836;6.376;2023-12-20T04:34:27;101223.19;;;6.16;84.65
55456;BME280;63021;52.836;6.376;2023-12-20T04:36:53;101239.03;;;6.29;84.86
55456;BME280;63021;52.836;6.376;2023-12-20T04:39:18;101239.03;;;6.29;84.85
55456;BME280;63021;52.836;6.376;2023-12-20T04:41:43;101235.31;;;6.31;84.65
55456;BME280;63021;52.836;6.376;2023-12-20T04:44:09;101244.84;;;6.34;84.60
55456;BME280;63021;52.836;6.376;2023-12-20T04:46:34;101238.09;;;6.30;84.42
55456;BME280;63021;52.836;6.376;2023-12-20T04:49:00;101237.13;;;6.31;84.62
55456;BME280;63021;52.836;6.376;2023-12-20T04:51:26;101247.59;;;6.32;84.55
55456;BME280;63021;52.836;6.376;2023-12-20T04:53:51;101250.25;;;6.32;84.18
55456;BME280;63021;52.836;6.376;2023-12-20T04:56:19;101256.25;;;6.34;84.47
55456;BME280;63021;52.836;6.376;2023-12-20T04:58:45;101228.13;;;6.33;84.44
55456;BME280;63021;52.836;6.376;2023-12-20T05:01:11;101241.97;;;6.37;84.63
55456;BME280;63021;52.836;6.376;2023-12-20T05:03:37;101226.22;;;6.35;84.23
55456;BME280;63021;52.836;6.376;2023-12-20T05:06:02;101228.75;;;6.37;84.75
55456;BME280;63021;52.836;6.376;2023-12-20T05:08:28;101260.16;;;6.41;84.08
55456;BME280;63021;52.836;6.376;2023-12-20T05:10:54;101235.41;;;6.43;84.81
55456;BME280;63021;52.836;6.376;2023-12-20T05:13:20;101255.50;;;6.45;84.42
55456;BME280;63021;52.836;6.376;2023-12-20T05:15:46;101238.53;;;6.48;84.19
55456;BME280;63021;52.836;6.376;2023-12-20T05:18:11;101251.56;;;6.51;84.30
55456;BME280;63021;52.836;6.376;2023-12-20T05:20:38;101243.53;;;6.52;84.16
55456;BME280;63021;52.836;6.376;2023-12-20T05:23:03;101242.66;;;6.52;84.40
55456;BME280;63021;52.836;6.376;2023-12-20T05:25:29;101255.47;;;6.58;84.57
55456;BME280;63021;52.836;6.376;2023-12-20T05:27:54;101270.59;;;6.56;84.15
55456;BME280;63021;52.836;6.376;2023-12-20T05:30:21;101245.72;;;6.58;84.50
55456;BME280;63021;52.836;6.376;2023-12-20T05:32:46;101243.19;;;6.57;84.42
55456;BME280;63021;52.836;6.376;2023-12-20T05:35:12;101237.91;;;6.57;84.60
55456;BME280;63021;52.836;6.376;2023-12-20T05:37:37;101233.00;;;6.64;84.58
55456;BME280;63021;52.836;6.376;2023-12-20T05:40:03;101233.84;;;6.64;83.97
55456;BME280;63021;52.836;6.376;2023-12-20T05:42:29;101239.84;;;6.66;84.43
55456;BME280;63021;52.836;6.376;2023-12-20T05:44:55;101236.28;;;6.67;84.02
55456;BME280;63021;52.836;6.376;2023-12-20T05:47:20;101217.75;;;6.67;84.19
55456;BME280;63021;52.836;6.376;2023-12-20T05:49:45;101216.81;;;6.68;84.33
55456;BME280;63021;52.836;6.376;2023-12-20T05:52:11;101236.88;;;6.71;84.15
55456;BME280;63021;52.836;6.376;2023-12-20T05:54:36;101224.41;;;6.73;83.93
55456;BME280;63021;52.836;6.376;2023-12-20T05:57:02;101205.03;;;6.72;83.73
55456;BME280;63021;52.836;6.376;2023-12-20T05:59:27;101208.41;;;6.74;84.35
55456;BME280;63021;52.836;6.376;2023-12-20T06:01:52;101206.72;;;6.73;83.55
55456;BME280;63021;52.836;6.376;2023-12-20T06:04:18;101208.53;;;6.73;83.85
55456;BME280;63021;52.836;6.376;2023-12-20T06:06:46;101204.19;;;6.72;83.86
55456;BME280;63021;52.836;6.376;2023-12-20T06:09:12;101216.88;;;6.80;83.76
55456;BME280;63021;52.836;6.376;2023-12-20T06:11:37;101200.88;;;6.81;83.94
55456;BME280;63021;52.836;6.376;2023-12-20T06:14:03;101195.69;;;6.80;83.64
55456;BME280;63021;52.836;6.376;2023-12-20T06:16:29;101185.41;;;6.75;83.39
55456;BME280;63021;52.836;6.376;2023-12-20T06:18:57;101193.66;;;6.83;83.48
55456;BME280;63021;52.836;6.376;2023-12-20T06:21:23;101207.63;;;6.85;83.23
55456;BME280;63021;52.836;6.376;2023-12-20T06:23:48;101198.00;;;6.84;83.51
55456;BME280;63021;52.836;6.376;2023-12-20T06:26:13;101196.91;;;6.87;83.05
55456;BME280;63021;52.836;6.376;2023-12-20T06:28:39;101209.16;;;6.88;83.07
55456;BME280;63021;52.836;6.376;2023-12-20T06:31:06;101203.66;;;6.91;83.15
55456;BME280;63021;52.836;6.376;2023-12-20T06:33:31;101194.00;;;6.79;83.05
55456;BME280;63021;52.836;6.376;2023-12-20T06:35:57;101219.53;;;6.91;83.34
55456;BME280;63021;52.836;6.376;2023-12-20T06:38:22;101193.06;;;6.91;82.83
55456;BME280;63021;52.836;6.376;2023-12-20T06:40:48;101194.75;;;6.92;82.92
55456;BME280;63021;52.836;6.376;2023-12-20T06:43:13;101192.00;;;6.93;82.90
55456;BME280;63021;52.836;6.376;2023-12-20T06:45:39;101208.75;;;6.94;83.38
55456;BME280;63021;52.836;6.376;2023-12-20T06:48:05;101194.41;;;6.97;83.29
55456;BME280;63021;52.836;6.376;2023-12-20T06:50:30;101198.75;;;6.98;82.97
55456;BME280;63021;52.836;6.376;2023-12-20T06:52:56;101189.22;;;6.95;82.85
55456;BME280;63021;52.836;6.376;2023-12-20T06:55:21;101207.63;;;6.97;83.28
55456;BME280;63021;52.836;6.376;2023-12-20T06:57:47;101176.50;;;7.00;83.25
55456;BME280;63021;52.836;6.376;2023-12-20T07:00:13;101200.34;;;7.00;82.92
55456;BME280;63021;52.836;6.376;2023-12-20T07:02:38;101179.88;;;7.02;82.99
55456;BME280;63021;52.836;6.376;2023-12-20T07:05:04;101176.28;;;7.03;83.27
55456;BME280;63021;52.836;6.376;2023-12-20T07:07:30;101180.63;;;7.04;82.92
55456;BME280;63021;52.836;6.376;2023-12-20T07:09:55;101170.03;;;7.04;83.31
55456;BME280;63021;52.836;6.376;2023-12-20T07:12:21;101163.78;;;7.05;83.12
55456;BME280;63021;52.836;6.376;2023-12-20T07:14:46;101176.03;;;7.06;82.89
55456;BME280;63021;52.836;6.376;2023-12-20T07:17:12;101161.34;;;7.02;82.83
55456;BME280;63021;52.836;6.376;2023-12-20T07:19:40;101167.16;;;7.07;82.90
55456;BME280;63021;52.836;6.376;2023-12-20T07:22:06;101172.31;;;7.09;82.77
55456;BME280;63021;52.836;6.376;2023-12-20T07:24:31;101166.06;;;7.10;82.82
55456;BME280;63021;52.836;6.376;2023-12-20T07:26:57;101161.00;;;7.07;82.75
55456;BME280;63021;52.836;6.376;2023-12-20T07:29:22;101163.31;;;7.11;82.52
55456;BME280;63021;52.836;6.376;2023-12-20T07:31:48;101169.19;;;7.15;82.81
55456;BME280;63021;52.836;6.376;2023-12-20T07:34:13;101154.50;;;7.11;82.18
55456;BME280;63021;52.836;6.376;2023-12-20T07:36:39;101162.25;;;7.14;82.70
55456;BME280;63021;52.836;6.376;2023-12-20T07:39:04;101163.53;;;7.08;82.27
55456;BME280;63021;52.836;6.376;2023-12-20T07:41:30;101168.47;;;7.13;82.22
55456;BME280;63021;52.836;6.376;2023-12-20T07:43:55;101165.47;;;7.18;82.38
55456;BME280;63021;52.836;6.376;2023-12-20T07:46:22;101155.25;;;7.13;82.11
55456;BME280;63021;52.836;6.376;2023-12-20T07:48:48;101164.41;;;7.20;81.96
55456;BME280;63021;52.836;6.376;2023-12-20T07:51:14;101163.66;;;7.18;82.24
55456;BME280;63021;52.836;6.376;2023-12-20T07:53:39;101179.22;;;7.23;82.52
55456;BME280;63021;52.836;6.376;2023-12-20T07:56:18;101183.34;;;7.27;82.36
55456;BME280;63021;52.836;6.376;2023-12-20T07:58:44;101187.53;;;7.29;82.38
55456;BME280;63021;52.836;6.376;2023-12-20T08:01:13;101192.94;;;7.28;81.94
55456;BME280;63021;52.836;6.376;2023-12-20T08:03:38;101171.63;;;7.29;81.72
55456;BME280;63021;52.836;6.376;2023-12-20T08:06:04;101193.44;;;7.33;81.57
55456;BME280;63021;52.836;6.376;2023-12-20T08:08:30;101181.78;;;7.36;82.06
55456;BME280;63021;52.836;6.376;2023-12-20T08:10:55;101171.06;;;7.37;81.70
55456;BME280;63021;52.836;6.376;2023-12-20T08:13:23;101170.94;;;7.39;81.66
55456;BME280;63021;52.836;6.376;2023-12-20T08:15:52;101159.72;;;7.35;81.32
55456;BME280;63021;52.836;6.376;2023-12-20T08:18:17;101175.63;;;7.35;81.15
55456;BME280;63021;52.836;6.376;2023-12-20T08:20:43;101166.59;;;7.38;81.51
55456;BME280;63021;52.836;6.376;2023-12-20T08:23:08;101178.53;;;7.43;81.33
55456;BME280;63021;52.836;6.376;2023-12-20T08:25:34;101177.56;;;7.44;81.04
55456;BME280;63021;52.836;6.376;2023-12-20T08:28:00;101180.94;;;7.46;80.87
55456;BME280;63021;52.836;6.376;2023-12-20T08:30:26;101177.22;;;7.49;81.18
55456;BME280;63021;52.836;6.376;2023-12-20T08:32:51;101179.03;;;7.49;80.88
55456;BME280;63021;52.836;6.376;2023-12-20T08:35:16;101162.63;;;7.43;81.25
55456;BME280;63021;52.836;6.376;2023-12-20T08:37:43;101173.50;;;7.52;81.17
55456;BME280;63021;52.836;6.376;2023-12-20T08:40:09;101184.91;;;7.52;81.03
55456;BME280;63021;52.836;6.376;2023-12-20T08:42:35;101166.63;;;7.49;80.77
55456;BME280;63021;52.836;6.376;2023-12-20T08:45:00;101182.16;;;7.54;80.61
55456;BME280;63021;52.836;6.376;2023-12-20T08:47:26;101174.94;;;7.56;80.28
55456;BME280;63021;52.836;6.376;2023-12-20T08:49:52;101165.41;;;7.53;80.81
55456;BME280;63021;52.836;6.376;2023-12-20T08:52:22;101161.91;;;7.53;80.37
55456;BME280;63021;52.836;6.376;2023-12-20T08:54:48;101183.47;;;7.59;80.74
55456;BME280;63021;52.836;6.376;2023-12-20T08:57:14;101178.06;;;7.61;80.27
55456;BME280;63021;52.836;6.376;2023-12-20T08:59:39;101178.94;;;7.61;80.72
55456;BME280;63021;52.836;6.376;2023-12-20T09:02:04;101189.53;;;7.61;80.35
55456;BME280;63021;52.836;6.376;2023-12-20T09:04:30;101189.41;;;7.63;80.51
55456;BME280;63021;52.836;6.376;2023-12-20T09:06:55;101181.56;;;7.61;80.27
55456;BME280;63021;52.836;6.376;2023-12-20T09:09:21;101190.94;;;7.66;80.36
55456;BME280;63021;52.836;6.376;2023-12-20T09:11:46;101194.47;;;7.66;80.41
55456;BME280;63021;52.836;6.376;2023-12-20T09:14:13;101177.81;;;7.64;80.48
55456;BME280;63021;52.836;6.376;2023-12-20T09:16:39;101182.16;;;7.65;80.21
55456;BME280;63021;52.836;6.376;2023-12-20T09:19:04;101174.84;;;7.69;80.35
55456;BME280;63021;52.836;6.376;2023-12-20T09:21:29;101171.81;;;7.62;80.42
55456;BME280;63021;52.836;6.376;2023-12-20T09:23:55;101180.97;;;7.69;80.43
55456;BME280;63021;52.836;6.376;2023-12-20T09:26:20;101183.97;;;7.65;80.28
55456;BME280;63021;52.836;6.376;2023-12-20T09:28:46;101210.69;;;7.73;79.71
55456;BME280;63021;52.836;6.376;2023-12-20T09:31:11;101213.03;;;7.77;79.81
55456;BME280;63021;52.836;6.376;2023-12-20T09:33:37;101188.78;;;7.82;80.09
55456;BME280;63021;52.836;6.376;2023-12-20T09:36:02;101190.63;;;7.82;80.21
55456;BME280;63021;52.836;6.376;2023-12-20T09:38:28;101190.84;;;7.90;79.86
55456;BME280;63021;52.836;6.376;2023-12-20T09:40:54;101183.63;;;7.92;80.03
55456;BME280;63021;52.836;6.376;2023-12-20T09:43:24;101195.31;;;7.89;79.90
55456;BME280;63021;52.836;6.376;2023-12-20T09:45:53;101215.31;;;7.93;79.68
55456;BME280;63021;52.836;6.376;2023-12-20T09:48:19;101223.13;;;7.95;79.89
55456;BME280;63021;52.836;6.376;2023-12-20T09:50:45;101223.38;;;7.92;79.95
55456;BME280;63021;52.836;6.376;2023-12-20T09:53:15;101230.25;;;7.94;79.75
55456;BME280;63021;52.836;6.376;2023-12-20T09:55:41;101249.16;;;7.90;79.89
55456;BME280;63021;52.836;6.376;2023-12-20T09:58:07;101284.22;;;7.82;79.78
55456;BME280;63021;52.836;6.376;2023-12-20T10:00:34;101262.41;;;7.67;78.67
55456;BME280;63021;52.836;6.376;2023-12-20T10:03:00;101261.75;;;7.52;79.29
55456;BME280;63021;52.836;6.376;2023-12-20T10:05:31;101276.72;;;7.29;79.29
55456;BME280;63021;52.836;6.376;2023-12-20T10:07:57;101272.34;;;7.17;79.37
55456;BME280;63021;52.836;6.376;2023-12-20T10:10:23;101275.63;;;6.96;78.68
55456;BME280;63021;52.836;6.376;2023-12-20T10:13:06;101272.25;;;6.94;78.76
55456;BME280;63021;52.836;6.376;2023-12-20T10:15:33;101291.97;;;6.90;79.02
55456;BME280;63021;52.836;6.376;2023-12-20T10:18:00;101287.97;;;6.84;79.07
55456;BME280;63021;52.836;6.376;2023-12-20T10:20:25;101285.19;;;6.86;79.76
55456;BME280;63021;52.836;6.376;2023-12-20T10:22:52;101284.44;;;6.84;79.49
55456;BME280;63021;52.836;6.376;2023-12-20T10:25:22;101262.03;;;6.76;79.76
55456;BME280;63021;52.836;6.376;2023-12-20T10:27:49;101259.31;;;6.78;79.68
55456;BME280;63021;52.836;6.376;2023-12-20T10:30:15;101262.28;;;6.73;79.57
55456;BME280;63021;52.836;6.376;2023-12-20T10:32:41;101261.31;;;6.74;79.95
55456;BME280;63021;52.836;6.376;2023-12-20T10:35:08;101260.81;;;6.69;79.34
55456;BME280;63021;52.836;6.376;2023-12-20T10:37:37;101264.31;;;6.70;80.00
55456;BME280;63021;52.836;6.376;2023-12-20T10:40:04;101259.84;;;6.70;79.83
55456;BME280;63021;52.836;6.376;2023-12-20T10:42:31;101239.84;;;6.66;79.45
55456;BME280;63021;52.836;6.376;2023-12-20T10:44:59;101249.59;;;6.66;79.63
55456;BME280;63021;52.836;6.376;2023-12-20T10:47:25;101249.59;;;6.66;79.87
55456;BME280;63021;52.836;6.376;2023-12-20T10:49:52;101233.00;;;6.64;79.40
55456;BME280;63021;52.836;6.376;2023-12-20T10:52:17;101224.44;;;6.60;79.78
55456;BME280;63021;52.836;6.376;2023-12-20T10:54:44;101237.50;;;6.74;79.29
55456;BME280;63021;52.836;6.376;2023-12-20T10:57:10;101234.88;;;6.74;80.01
55456;BME280;63021;52.836;6.376;2023-12-20T10:59:43;101242.81;;;6.74;79.74
55456;BME280;63021;52.836;6.376;2023-12-20T11:02:11;101234.53;;;6.79;80.04
55456;BME280;63021;52.836;6.376;2023-12-20T11:04:39;101238.03;;;6.80;79.42
55456;BME280;63021;52.836;6.376;2023-12-20T11:07:19;101229.22;;;6.79;79.47
55456;BME280;63021;52.836;6.376;2023-12-20T11:09:57;101221.53;;;6.76;79.68
55456;BME280;63021;52.836;6.376;2023-12-20T11:13:08;101232.63;;;6.81;79.44
55456;BME280;63021;52.836;6.376;2023-12-20T11:15:36;101241.41;;;6.82;78.99
55456;BME280;63021;52.836;6.376;2023-12-20T11:18:04;101219.38;;;6.81;79.14
55456;BME280;63021;52.836;6.376;2023-12-20T11:20:38;101226.03;;;6.87;79.10
55456;BME280;63021;52.836;6.376;2023-12-20T11:23:04;101224.09;;;6.89;79.04
55456;BME280;63021;52.836;6.376;2023-12-20T11:25:56;101218.69;;;6.90;79.52
55456;BME280;63021;52.836;6.376;2023-12-20T11:28:24;101205.69;;;6.87;79.47
55456;BME280;63021;52.836;6.376;2023-12-20T11:30:52;101219.31;;;6.94;79.26
55456;BME280;63021;52.836;6.376;2023-12-20T11:33:37;101213.06;;;6.95;79.22
55456;BME280;63021;52.836;6.376;2023-12-20T11:36:03;101197.81;;;6.99;79.40
55456;BME280;63021;52.836;6.376;2023-12-20T11:38:37;101212.72;;;7.00;79.27
55456;BME280;63021;52.836;6.376;2023-12-20T11:41:05;101188.91;;;7.00;79.75
55456;BME280;63021;52.836;6.376;2023-12-20T11:43:38;101187.81;;;7.02;79.39
55456;BME280;63021;52.836;6.376;2023-12-20T11:46:08;101193.84;;;7.04;79.42
55456;BME280;63021;52.836;6.376;2023-12-20T11:48:36;101191.31;;;7.03;79.39
55456;BME280;63021;52.836;6.376;2023-12-20T11:51:02;101199.16;;;7.04;79.61
55456;BME280;63021;52.836;6.376;2023-12-20T11:53:29;101206.84;;;7.07;79.19
55456;BME280;63021;52.836;6.376;2023-12-20T11:55:56;101199.03;;;7.06;79.51
55456;BME280;63021;52.836;6.376;2023-12-20T11:58:21;101199.84;;;7.06;79.64
55456;BME280;63021;52.836;6.376;2023-12-20T12:00:49;101196.38;;;7.06;79.77
55456;BME280;63021;52.836;6.376;2023-12-20T12:03:15;101198.91;;;7.07;79.78
55456;BME280;63021;52.836;6.376;2023-12-20T12:05:41;101194.44;;;7.08;79.47
55456;BME280;63021;52.836;6.376;2023-12-20T12:08:06;101181.09;;;7.09;79.63
55456;BME280;63021;52.836;6.376;2023-12-20T12:10:33;101189.03;;;7.09;79.86
55456;BME280;63021;52.836;6.376;2023-12-20T12:12:59;101142.09;;;7.00;80.00
55456;BME280;63021;52.836;6.376;2023-12-20T12:15:25;101152.31;;;7.05;79.83
55456;BME280;63021;52.836;6.376;2023-12-20T12:17:57;101179.91;;;7.14;79.63
55456;BME280;63021;52.836;6.376;2023-12-20T12:20:23;101170.38;;;7.11;79.48
55456;BME280;63021;52.836;6.376;2023-12-20T12:25:25;101176.66;;;7.10;79.30
55456;BME280;63021;52.836;6.376;2023-12-20T12:27:51;101147.53;;;7.10;79.66
55456;BME280;63021;52.836;6.376;2023-12-20T12:30:16;101131.38;;;7.02;79.53
55456;BME280;63021;52.836;6.376;2023-12-20T12:32:47;101142.00;;;7.13;80.35
55456;BME280;63021;52.836;6.376;2023-12-20T12:35:13;101115.88;;;6.97;79.80
55456;BME280;63021;52.836;6.376;2023-12-20T12:37:40;101149.19;;;7.11;79.79
55456;BME280;63021;52.836;6.376;2023-12-20T12:40:10;101181.34;;;7.06;79.43
55456;BME280;63021;52.836;6.376;2023-12-20T12:42:37;101148.22;;;7.01;79.31
55456;BME280;63021;52.836;6.376;2023-12-20T12:45:03;101154.81;;;6.95;79.18
55456;BME280;63021;52.836;6.376;2023-12-20T12:47:29;101146.28;;;6.91;79.23
55456;BME280;63021;52.836;6.376;2023-12-20T12:49:55;101168.53;;;6.89;79.52
55456;BME280;63021;52.836;6.376;2023-12-20T12:52:20;101168.75;;;6.86;79.41
55456;BME280;63021;52.836;6.376;2023-12-20T12:54:45;101161.25;;;6.68;79.30
55456;BME280;63021;52.836;6.376;2023-12-20T12:57:13;101161.59;;;6.75;79.44
55456;BME280;63021;52.836;6.376;2023-12-20T12:59:39;101153.41;;;6.67;79.55